Terminal Aerodrome Forecast
Issued by NWS Cleveland, OH

Home | Current Version | Previous Version | Text Only | Print | Product List | Glossary Off
Versions: 1 2 3 4 5 6 7 8 9 10 11 12 13 14 15 16 17 18 19 20

903
FTUS41 KCLE 301556 AAB
TAFYNG
TAF AMD
KYNG 301556Z 3016/0112 14008KT 2SM -RA BR OVC005
      TEMPO 3016/3020 4SM -RA BR OVC015
     FM302000 16008KT 5SM BR VCSH OVC010
     FM302200 22010KT 6SM -SHRA BKN015
     FM010300 26012KT P6SM BKN025=

USA.gov is the U.S. government's official web portal to all federal, state and local government web resources and services.